Time;durP1;ratioP1;P1;durP2;ratioP2;P2;SDS_P1;SDS_P2;PMS_P1;PMS_P2;Temp;Humidity;BMP_temperature;BMP_pressure;BME280_temperature;BME280_humidity;BME280_pressure;Samples;Min_cycle;Max_cycle;Signal;HPM_P1;HPM_P2
2023/06/02 00:00:21;;;;;;;8.60;3.83;;;;;;;17.59;53.95;99895.13;5105444;28;20235;-61
2023/06/02 00:02:51;;;;;;;10.52;3.67;;;;;;;17.56;54.00;99884.84;5110356;28;20212;-60
2023/06/02 00:05:19;;;;;;;8.20;3.30;;;;;;;17.54;54.11;99897.09;5110181;28;20210;-61
2023/06/02 00:07:48;;;;;;;7.65;3.40;;;;;;;17.51;54.18;99892.00;5109991;28;20204;-61
2023/06/02 00:10:16;;;;;;;9.75;3.40;;;;;;;17.47;53.91;99890.44;5111978;28;20536;-64
2023/06/02 00:12:44;;;;;;;6.88;3.47;;;;;;;17.39;54.22;99888.16;5107796;28;20206;-63
2023/06/02 00:15:12;;;;;;;6.45;3.28;;;;;;;17.33;54.56;99889.25;5111004;27;20204;-61
2023/06/02 00:17:41;;;;;;;6.97;3.75;;;;;;;17.25;54.67;99900.91;5109026;28;20295;-61
2023/06/02 00:20:10;;;;;;;6.13;3.20;;;;;;;17.18;55.12;99905.53;5109417;28;20196;-61
2023/06/02 00:22:39;;;;;;;7.65;3.75;;;;;;;17.10;55.36;99897.19;5101853;28;20204;-61
2023/06/02 00:25:07;;;;;;;8.30;3.88;;;;;;;17.05;55.33;99899.13;5108666;28;20215;-60
2023/06/02 00:27:35;;;;;;;6.22;4.15;;;;;;;16.97;55.68;99889.00;5110606;28;20200;-62
2023/06/02 00:30:04;;;;;;;8.38;3.75;;;;;;;16.93;56.08;99890.03;5103855;28;20200;-61
2023/06/02 00:32:32;;;;;;;7.82;3.90;;;;;;;16.95;56.08;99888.25;5108889;28;20207;-60
2023/06/02 00:35:01;;;;;;;5.13;3.38;;;;;;;16.92;56.41;99892.72;5110450;28;20196;-61
2023/06/02 00:37:29;;;;;;;10.32;3.78;;;;;;;16.93;56.24;99902.22;5110494;28;20204;-65
2023/06/02 00:39:57;;;;;;;10.05;4.03;;;;;;;16.91;56.59;99907.50;5110601;28;20204;-66
2023/06/02 00:42:24;;;;;;;9.73;4.00;;;;;;;16.87;56.96;99904.16;5108749;28;20211;-67
2023/06/02 00:44:52;;;;;;;8.20;3.53;;;;;;;16.83;57.14;99907.81;5103577;28;20212;-64
2023/06/02 00:47:20;;;;;;;9.60;3.88;;;;;;;16.81;57.07;99909.59;5106152;28;20206;-65
2023/06/02 00:49:48;;;;;;;6.90;4.10;;;;;;;16.76;57.28;99903.75;5112041;28;20666;-65
2023/06/02 00:52:19;;;;;;;7.60;3.67;;;;;;;16.77;57.30;99900.22;5109181;28;20658;-65
2023/06/02 00:54:47;;;;;;;7.90;3.45;;;;;;;16.77;57.14;99899.38;5111009;28;20677;-66
2023/06/02 00:57:15;;;;;;;9.10;3.67;;;;;;;16.72;57.23;99902.13;5108772;28;20207;-66
2023/06/02 00:59:44;;;;;;;9.85;4.03;;;;;;;16.73;56.91;99903.81;5110020;28;20200;-65
2023/06/02 01:02:13;;;;;;;8.95;3.78;;;;;;;16.66;56.93;99905.81;5104657;28;20601;-64
2023/06/02 01:04:41;;;;;;;7.95;3.78;;;;;;;16.64;57.12;99901.56;5110376;28;20223;-65
2023/06/02 01:07:10;;;;;;;8.30;3.92;;;;;;;16.63;56.76;99902.47;5108093;28;20215;-66
2023/06/02 01:09:42;;;;;;;7.15;3.92;;;;;;;16.60;56.72;99905.19;5097194;28;20199;-64
2023/06/02 01:12:12;;;;;;;7.97;3.92;;;;;;;16.58;56.90;99900.06;5100626;28;20204;-66
2023/06/02 01:14:40;;;;;;;7.72;3.47;;;;;;;16.59;56.90;99906.13;5109380;28;20208;-64
2023/06/02 01:17:09;;;;;;;7.43;4.50;;;;;;;16.56;56.91;99906.22;5107114;28;20208;-65
2023/06/02 01:19:38;;;;;;;7.25;3.80;;;;;;;16.51;56.83;99915.97;5110443;28;20207;-67
2023/06/02 01:22:08;;;;;;;9.13;4.05;;;;;;;16.46;57.17;99907.47;5110884;28;20200;-65
2023/06/02 01:24:39;;;;;;;9.23;4.10;;;;;;;16.40;56.81;99912.00;5108759;28;20695;-64
2023/06/02 01:29:43;;;;;;;9.65;4.30;;;;;;;16.27;57.25;99905.56;5042380;28;20251;-59
2023/06/02 01:32:19;;;;;;;8.25;3.72;;;;;;;16.33;57.50;99914.91;5062096;28;20198;-57
2023/06/02 01:34:53;;;;;;;9.68;4.00;;;;;;;16.28;57.29;99909.88;5046326;28;20584;-59
2023/06/02 01:37:23;;;;;;;5.03;3.78;;;;;;;16.22;57.20;99906.66;5062641;28;20290;-58
2023/06/02 01:39:54;;;;;;;6.95;4.07;;;;;;;16.22;57.68;99911.84;5051756;28;20206;-59
2023/06/02 01:42:24;;;;;;;9.05;3.80;;;;;;;16.18;57.57;99906.75;5048904;28;20210;-58
2023/06/02 01:44:52;;;;;;;10.30;3.90;;;;;;;16.18;57.60;99901.56;5059813;28;20586;-58
2023/06/02 01:47:20;;;;;;;7.30;3.95;;;;;;;16.13;57.20;99898.31;5053554;28;20227;-58
2023/06/02 01:49:48;;;;;;;10.43;4.22;;;;;;;16.10;57.87;99905.38;5051320;28;20204;-57
2023/06/02 01:52:16;;;;;;;10.68;4.32;;;;;;;16.05;57.94;99902.06;5054160;28;20208;-57
2023/06/02 01:54:44;;;;;;;6.78;3.70;;;;;;;16.06;57.79;99895.97;5052399;28;20202;-57
2023/06/02 01:57:15;;;;;;;11.63;4.53;;;;;;;16.06;57.87;99898.59;5053063;28;20596;-59
2023/06/02 01:59:42;;;;;;;9.20;3.75;;;;;;;16.05;58.19;99900.31;5058348;28;20206;-59
2023/06/02 02:02:10;;;;;;;9.05;4.35;;;;;;;16.10;58.03;99902.75;5056413;28;20285;-60
2023/06/02 02:04:40;;;;;;;7.35;4.15;;;;;;;16.11;57.76;99899.25;5052495;28;20246;-59
2023/06/02 02:07:11;;;;;;;9.98;4.72;;;;;;;16.10;57.62;99887.16;5052999;28;20213;-58
2023/06/02 02:09:42;;;;;;;7.70;3.45;;;;;;;16.08;57.51;99896.75;5055712;28;20253;-59
2023/06/02 02:12:10;;;;;;;9.55;4.13;;;;;;;16.06;57.74;99903.78;5052819;28;20201;-58
2023/06/02 02:14:39;;;;;;;7.10;4.05;;;;;;;16.01;58.09;99897.88;5063039;28;20229;-58
2023/06/02 02:17:09;;;;;;;8.35;3.75;;;;;;;15.99;57.90;99904.91;5055432;28;20563;-58
2023/06/02 02:19:37;;;;;;;10.18;4.10;;;;;;;15.97;58.11;99904.09;5064626;28;21047;-59
2023/06/02 02:22:06;;;;;;;6.72;4.25;;;;;;;15.87;58.14;99899.25;5044673;28;20713;-59
2023/06/02 02:24:35;;;;;;;7.28;4.28;;;;;;;15.83;58.20;99889.88;5059949;28;20222;-58
2023/06/02 02:27:03;;;;;;;7.90;4.18;;;;;;;15.83;58.66;99892.47;5052180;28;20202;-59
2023/06/02 02:29:31;;;;;;;10.95;4.05;;;;;;;15.84;58.58;99896.75;5054631;28;20243;-59
2023/06/02 02:32:01;;;;;;;11.60;3.88;;;;;;;15.83;58.53;99892.47;5053524;28;20212;-58
2023/06/02 02:34:29;;;;;;;8.65;4.10;;;;;;;15.86;58.59;99905.31;5056995;28;20193;-58
2023/06/02 02:37:01;;;;;;;9.38;4.15;;;;;;;15.85;58.75;99895.84;5055788;28;20213;-58
2023/06/02 02:39:29;;;;;;;6.75;4.35;;;;;;;15.90;58.45;99896.50;5067537;28;20339;-59
2023/06/02 02:41:57;;;;;;;8.35;4.95;;;;;;;15.90;58.33;99899.09;5070545;28;20216;-58
2023/06/02 02:44:25;;;;;;;8.00;3.85;;;;;;;15.88;58.35;99897.50;5057584;28;20218;-58
2023/06/02 02:46:53;;;;;;;6.95;4.30;;;;;;;15.85;58.10;99892.41;5063376;28;20210;-58
2023/06/02 02:49:23;;;;;;;6.82;4.18;;;;;;;15.87;58.20;99896.66;5051460;28;20612;-58
2023/06/02 02:51:51;;;;;;;6.10;3.88;;;;;;;15.83;58.16;99889.88;5052215;28;20233;-59
2023/06/02 02:54:19;;;;;;;7.70;3.95;;;;;;;15.86;57.64;99900.13;5052391;28;20232;-58
2023/06/02 02:56:47;;;;;;;6.57;4.15;;;;;;;15.86;57.61;99894.09;5055524;28;20721;-59
2023/06/02 02:59:15;;;;;;;11.52;3.90;;;;;;;15.80;57.89;99902.97;5055708;28;20198;-58
2023/06/02 03:01:46;;;;;;;9.60;4.18;;;;;;;15.77;58.53;99904.81;5060828;28;20197;-59
2023/06/02 03:04:18;;;;;;;9.55;4.53;;;;;;;15.76;58.36;99911.78;5044677;28;20197;-57
2023/06/02 03:06:49;;;;;;;7.90;4.38;;;;;;;15.75;58.47;99907.44;5055169;28;20206;-63
2023/06/02 03:09:17;;;;;;;8.93;4.50;;;;;;;15.73;58.56;99917.06;5052801;28;20225;-59
2023/06/02 03:11:45;;;;;;;11.18;4.38;;;;;;;15.73;59.16;99918.81;5060153;28;20202;-58
2023/06/02 03:14:13;;;;;;;10.45;4.80;;;;;;;15.72;59.28;99907.56;5052557;28;20264;-57
2023/06/02 03:16:44;;;;;;;8.73;4.30;;;;;;;15.75;59.05;99910.03;5053141;28;20232;-58
2023/06/02 03:19:13;;;;;;;9.43;4.43;;;;;;;15.74;59.32;99910.97;5056655;28;20212;-58
2023/06/02 03:21:43;;;;;;;8.10;4.93;;;;;;;15.74;59.11;99902.31;5058673;28;20217;-58
2023/06/02 03:24:14;;;;;;;8.13;4.40;;;;;;;15.77;59.58;99904.81;5049912;28;20202;-58
2023/06/02 03:26:42;;;;;;;7.65;4.10;;;;;;;15.80;59.12;99915.94;5059563;28;20198;-58
2023/06/02 03:29:11;;;;;;;9.57;4.68;;;;;;;15.76;59.13;99919.56;5051850;28;20599;-58
2023/06/02 03:31:40;;;;;;;9.80;4.75;;;;;;;15.69;59.78;99924.13;5049189;28;20209;-60
2023/06/02 03:34:08;;;;;;;8.98;4.80;;;;;;;15.70;59.90;99924.97;5063771;28;20210;-58
2023/06/02 03:36:37;;;;;;;8.68;4.55;;;;;;;15.64;59.47;99930.31;5048931;28;20289;-57
2023/06/02 03:39:06;;;;;;;11.57;4.63;;;;;;;15.58;60.19;99925.34;5059906;28;20198;-58
2023/06/02 03:41:36;;;;;;;9.15;4.55;;;;;;;15.54;59.82;99923.72;5054426;28;20216;-59
2023/06/02 03:44:05;;;;;;;6.85;5.00;;;;;;;15.53;60.25;99925.50;5051811;28;20202;-59
2023/06/02 03:46:33;;;;;;;9.20;4.50;;;;;;;15.55;60.70;99930.66;5056760;28;20249;-59
2023/06/02 03:49:02;;;;;;;8.65;4.85;;;;;;;15.57;60.57;99926.22;5050082;28;20202;-58
2023/06/02 03:51:30;;;;;;;7.93;4.68;;;;;;;15.61;60.45;99914.84;5054337;28;20230;-60
2023/06/02 03:53:58;;;;;;;11.40;5.70;;;;;;;15.67;60.49;99927.66;5050946;28;20559;-58
2023/06/02 03:56:26;;;;;;;10.00;5.82;;;;;;;15.77;60.00;99938.59;5050275;28;20202;-58
2023/06/02 03:58:55;;;;;;;12.98;6.40;;;;;;;15.81;60.11;99943.63;5041754;28;20206;-58
2023/06/02 04:01:23;;;;;;;17.13;6.97;;;;;;;15.83;59.85;99939.22;5056998;28;20201;-59
2023/06/02 04:03:51;;;;;;;8.90;6.07;;;;;;;15.80;60.17;99941.09;5053949;28;20545;-58
2023/06/02 04:06:19;;;;;;;12.85;6.50;;;;;;;15.75;59.72;99949.00;5063300;28;20217;-60
2023/06/02 04:08:47;;;;;;;11.65;6.55;;;;;;;15.72;60.48;99943.91;5056055;28;20217;-59
2023/06/02 04:11:15;;;;;;;11.13;6.03;;;;;;;15.76;60.19;99940.34;5058843;28;20208;-58
2023/06/02 04:13:43;;;;;;;8.93;6.00;;;;;;;15.77;59.70;99942.03;5043420;28;20250;-57
2023/06/02 04:16:12;;;;;;;9.70;5.63;;;;;;;15.74;59.64;99946.47;5049608;28;20542;-58
2023/06/02 04:18:40;;;;;;;11.25;5.82;;;;;;;15.70;60.01;99950.94;5061792;28;20283;-57
2023/06/02 04:21:08;;;;;;;15.30;6.13;;;;;;;15.69;60.07;99955.28;5059987;28;20239;-58
2023/06/02 04:23:36;;;;;;;8.48;5.35;;;;;;;15.66;60.21;99947.59;5051536;28;20202;-57
2023/06/02 04:26:04;;;;;;;15.20;6.20;;;;;;;15.70;60.42;99950.94;5055596;28;20213;-58
2023/06/02 04:28:35;;;;;;;10.48;5.35;;;;;;;15.71;59.83;99942.22;5050723;28;20354;-58
2023/06/02 04:31:05;;;;;;;12.85;5.80;;;;;;;15.64;60.25;99935.50;5046101;28;20248;-58
2023/06/02 04:33:34;;;;;;;8.52;4.85;;;;;;;15.60;60.37;99945.16;5050841;28;20210;-65
2023/06/02 04:36:03;;;;;;;9.40;5.65;;;;;;;15.63;60.12;99942.47;5051231;28;20194;-64
2023/06/02 04:38:32;;;;;;;11.73;5.70;;;;;;;15.62;60.58;99943.38;5050051;28;20344;-61
2023/06/02 04:41:01;;;;;;;10.85;6.35;;;;;;;15.59;60.55;99955.63;5046251;28;20220;-58
2023/06/02 04:43:29;;;;;;;9.20;5.72;;;;;;;15.59;60.14;99960.81;5053072;28;20252;-60
2023/06/02 04:46:01;;;;;;;12.52;5.97;;;;;;;15.56;60.61;99960.91;5059803;28;20245;-61
2023/06/02 04:48:30;;;;;;;11.70;6.63;;;;;;;15.46;60.82;99963.81;5052544;28;20256;-61
2023/06/02 04:50:59;;;;;;;10.90;5.82;;;;;;;15.44;60.84;99968.19;5050780;28;20210;-60
2023/06/02 04:53:27;;;;;;;9.70;6.45;;;;;;;15.46;60.96;99965.53;5048873;28;20621;-62
2023/06/02 04:55:56;;;;;;;14.35;6.40;;;;;;;15.49;60.91;99960.25;5062574;28;20322;-61
2023/06/02 04:58:24;;;;;;;10.00;6.40;;;;;;;15.57;61.52;99963.44;5049676;28;20209;-62
2023/06/02 05:00:52;;;;;;;7.75;5.45;;;;;;;15.69;60.84;99957.03;5052162;28;20206;-61
2023/06/02 05:03:20;;;;;;;9.35;6.07;;;;;;;15.79;60.47;99958.41;5051560;28;20211;-60
2023/06/02 05:05:48;;;;;;;12.93;6.40;;;;;;;15.82;59.81;99962.66;5057280;28;20565;-61
2023/06/02 05:08:18;;;;;;;12.43;5.75;;;;;;;15.84;59.89;99963.47;5061328;28;20629;-62
2023/06/02 05:10:46;;;;;;;10.82;5.70;;;;;;;15.82;60.14;99963.50;5053270;28;20201;-60
2023/06/02 05:13:15;;;;;;;12.00;5.75;;;;;;;15.85;59.86;99966.00;5061263;28;20213;-59
2023/06/02 05:15:43;;;;;;;11.07;6.07;;;;;;;15.88;60.06;99963.28;5053451;28;20687;-61
2023/06/02 05:18:14;;;;;;;44.33;31.13;;;;;;;15.89;59.75;99974.53;5040313;28;20210;-59
2023/06/02 05:20:42;;;;;;;13.85;6.07;;;;;;;15.92;59.59;99972.69;5048467;28;20279;-58
2023/06/02 05:23:10;;;;;;;10.75;5.88;;;;;;;15.99;59.54;99969.88;5052072;28;20225;-58
2023/06/02 05:25:40;;;;;;;10.35;5.50;;;;;;;16.08;59.70;99969.53;5051176;28;20628;-59
2023/06/02 05:28:09;;;;;;;9.57;5.70;;;;;;;16.06;59.28;99969.59;5051937;28;20332;-59
2023/06/02 05:30:37;;;;;;;9.65;5.20;;;;;;;15.99;59.34;99959.47;5055849;28;20220;-59
2023/06/02 05:33:05;;;;;;;7.57;5.10;;;;;;;15.97;59.35;99958.66;5053769;28;20194;-58
2023/06/02 05:35:33;;;;;;;9.70;5.35;;;;;;;16.03;59.45;99974.06;5051973;28;20210;-64
2023/06/02 05:38:01;;;;;;;8.63;5.13;;;;;;;16.06;59.50;99963.56;5050591;28;20212;-65
2023/06/02 05:40:29;;;;;;;8.70;5.93;;;;;;;16.07;59.21;99966.09;5046660;28;20577;-65
2023/06/02 05:42:58;;;;;;;8.07;5.57;;;;;;;16.11;59.02;99970.28;5050214;28;20217;-58
2023/06/02 05:45:27;;;;;;;11.10;5.45;;;;;;;16.12;58.88;99974.56;5052026;28;20664;-60
2023/06/02 05:47:55;;;;;;;7.45;5.22;;;;;;;16.13;58.80;99986.69;5048412;28;20233;-62
2023/06/02 05:50:23;;;;;;;11.70;5.22;;;;;;;16.04;58.88;99996.53;5054045;28;20208;-60
2023/06/02 05:52:52;;;;;;;8.75;5.93;;;;;;;15.94;59.25;99996.88;5053905;28;20206;-64
2023/06/02 05:55:20;;;;;;;8.35;5.80;;;;;;;15.90;59.41;99995.25;5054047;28;20663;-59
2023/06/02 05:57:47;;;;;;;10.48;6.35;;;;;;;15.84;59.86;99998.09;5058885;28;20208;-64
2023/06/02 06:00:18;;;;;;;12.90;5.57;;;;;;;15.81;60.00;100002.53;5047614;28;20344;-63
2023/06/02 06:02:47;;;;;;;11.02;5.78;;;;;;;15.78;60.71;100002.63;5053615;28;20205;-64
2023/06/02 06:05:15;;;;;;;10.07;5.88;;;;;;;15.77;60.75;100003.53;5053992;28;20198;-61
2023/06/02 06:07:43;;;;;;;8.80;5.40;;;;;;;15.77;60.67;100001.78;5053710;28;20321;-60
2023/06/02 06:10:11;;;;;;;10.57;5.50;;;;;;;15.75;60.65;99994.94;5053589;28;20291;-61
2023/06/02 06:12:39;;;;;;;10.30;5.85;;;;;;;15.75;60.50;100000.97;5053586;28;20268;-60
2023/06/02 06:15:08;;;;;;;9.02;5.35;;;;;;;15.78;60.83;99997.44;5052322;28;20210;-60
2023/06/02 06:17:47;;;;;;;9.40;5.45;;;;;;;15.74;60.29;99999.28;5051074;28;20212;-61
2023/06/02 06:20:16;;;;;;;8.20;4.97;;;;;;;15.71;60.77;100004.56;5060083;28;20200;-60
2023/06/02 06:22:44;;;;;;;11.07;5.32;;;;;;;15.69;60.77;100015.03;5053952;28;20205;-61
2023/06/02 06:25:12;;;;;;;6.22;4.95;;;;;;;15.69;60.76;100014.19;5053299;28;20233;-66
2023/06/02 06:27:40;;;;;;;9.38;4.40;;;;;;;15.68;61.05;100015.94;5052211;28;20325;-59
2023/06/02 06:30:09;;;;;;;7.72;4.82;;;;;;;15.67;60.83;100018.56;5049501;28;20210;-59
2023/06/02 06:32:37;;;;;;;8.80;4.90;;;;;;;15.59;60.86;100025.75;5058897;28;20229;-58
2023/06/02 06:35:07;;;;;;;6.97;5.07;;;;;;;15.54;61.14;100025.00;5047756;28;20226;-60
2023/06/02 06:37:35;;;;;;;5.93;4.85;;;;;;;15.50;61.42;100026.00;5050390;28;20214;-59
2023/06/02 06:40:03;;;;;;;7.80;4.63;;;;;;;15.45;61.74;100018.38;5052980;28;20198;-60
2023/06/02 06:42:31;;;;;;;8.35;4.75;;;;;;;15.50;62.55;100026.00;5054213;28;20230;-60
2023/06/02 06:44:59;;;;;;;7.28;4.82;;;;;;;15.52;62.38;100022.47;5052892;28;20209;-59
2023/06/02 06:47:27;;;;;;;9.63;4.75;;;;;;;15.51;62.32;100030.34;5052952;28;20775;-60
2023/06/02 06:49:56;;;;;;;6.45;5.13;;;;;;;15.48;62.67;100028.69;5053058;28;20202;-60
2023/06/02 06:52:26;;;;;;;8.10;5.18;;;;;;;15.42;62.55;100034.06;5053636;28;20206;-60
2023/06/02 06:54:54;;;;;;;7.95;4.70;;;;;;;15.33;62.82;100055.13;5053173;28;20293;-60
2023/06/02 06:57:22;;;;;;;7.13;4.72;;;;;;;15.29;63.47;100049.19;5048663;28;20209;-61
2023/06/02 06:59:50;;;;;;;10.02;5.25;;;;;;;15.25;63.67;100050.16;5051701;28;20218;-60
2023/06/02 07:02:19;;;;;;;10.15;4.75;;;;;;;15.23;64.32;100060.59;5058354;28;20198;-60
2023/06/02 07:04:47;;;;;;;10.45;5.50;;;;;;;15.25;64.20;100063.16;5046947;28;20213;-59
2023/06/02 07:07:15;;;;;;;17.80;4.53;;;;;;;15.26;64.13;100059.66;5050078;28;20309;-60
2023/06/02 07:09:45;;;;;;;15.02;4.68;;;;;;;15.27;63.85;100060.50;5051922;28;20555;-60
2023/06/02 07:12:13;;;;;;;19.63;5.20;;;;;;;15.31;63.50;100057.75;5051810;28;20301;-60
2023/06/02 07:14:41;;;;;;;7.45;3.85;;;;;;;15.33;63.53;100065.50;5053945;28;20292;-61
2023/06/02 07:17:09;;;;;;;8.63;5.03;;;;;;;15.37;63.03;100072.31;5051695;28;20198;-61
2023/06/02 07:19:37;;;;;;;9.20;4.32;;;;;;;15.40;63.01;100070.47;5051977;28;20224;-61
2023/06/02 07:22:06;;;;;;;6.72;4.20;;;;;;;15.41;63.29;100074.75;5048833;28;20197;-60
2023/06/02 07:24:34;;;;;;;6.72;4.13;;;;;;;15.42;62.85;100076.44;5051722;28;20204;-60
2023/06/02 07:27:04;;;;;;;10.77;4.47;;;;;;;15.41;63.04;100076.50;5051351;28;20218;-61
2023/06/02 07:29:32;;;;;;;6.53;3.70;;;;;;;15.42;63.03;100081.63;5051295;28;20252;-60
2023/06/02 07:32:00;;;;;;;7.53;4.45;;;;;;;15.48;63.24;100072.81;5052348;28;20202;-64
2023/06/02 07:34:28;;;;;;;6.68;4.00;;;;;;;15.55;63.08;100076.09;5047877;28;20658;-60
2023/06/02 07:36:56;;;;;;;8.48;4.45;;;;;;;15.56;62.63;100081.22;5051420;28;20206;-60
2023/06/02 07:39:24;;;;;;;7.82;3.92;;;;;;;15.53;62.78;100083.06;5047050;28;20485;-60
2023/06/02 07:41:52;;;;;;;9.60;4.00;;;;;;;15.54;62.82;100080.44;5047992;28;20344;-61
2023/06/02 07:44:21;;;;;;;8.05;3.80;;;;;;;15.61;62.96;100079.34;5050727;28;20652;-59
2023/06/02 07:46:49;;;;;;;10.05;3.30;;;;;;;15.66;62.14;100074.03;5047044;28;20620;-59
2023/06/02 07:49:17;;;;;;;6.63;4.00;;;;;;;15.74;62.41;100081.56;5038298;28;21256;-60
2023/06/02 07:51:45;;;;;;;6.63;4.10;;;;;;;15.85;62.17;100080.31;5046710;28;20210;-59
2023/06/02 07:54:13;;;;;;;7.25;3.83;;;;;;;16.01;60.94;100078.06;5049652;28;20491;-59
2023/06/02 07:56:41;;;;;;;5.80;3.30;;;;;;;16.12;60.80;100080.28;5047182;28;20198;-60
2023/06/02 07:59:12;;;;;;;6.60;3.55;;;;;;;16.20;59.88;100086.09;5047182;28;20724;-58
2023/06/02 08:01:41;;;;;;;7.07;3.65;;;;;;;16.25;59.77;100089.38;5045790;28;20613;-59
2023/06/02 08:04:09;;;;;;;7.20;3.88;;;;;;;16.29;59.71;100090.97;5047588;28;20575;-59
2023/06/02 08:06:38;;;;;;;7.15;3.42;;;;;;;16.31;59.75;100093.50;5048527;28;20302;-58
2023/06/02 08:09:09;;;;;;;6.78;3.75;;;;;;;16.36;59.54;100097.66;5042263;28;20618;-59
2023/06/02 08:11:37;;;;;;;6.32;3.00;;;;;;;16.44;58.93;100097.41;5044933;28;20198;-58
2023/06/02 08:14:06;;;;;;;5.38;3.30;;;;;;;16.47;58.46;100097.28;5059098;28;20573;-68
2023/06/02 08:16:34;;;;;;;13.50;3.75;;;;;;;16.47;58.40;100109.47;5049609;28;20650;-66
2023/06/02 08:19:23;;;;;;;6.78;3.67;;;;;;;16.37;58.33;100111.50;5046391;28;20271;-64
2023/06/02 08:21:51;;;;;;;6.82;3.03;;;;;;;16.28;57.93;100117.88;5045272;28;20202;-64
2023/06/02 08:24:20;;;;;;;7.85;3.50;;;;;;;16.14;58.29;100122.69;5052184;28;20212;-64
2023/06/02 08:26:49;;;;;;;6.10;3.03;;;;;;;16.01;59.08;100121.38;5054103;28;20623;-67
2023/06/02 08:29:16;;;;;;;5.07;3.00;;;;;;;15.92;59.07;100136.38;5050485;28;20234;-66
2023/06/02 08:31:44;;;;;;;5.72;3.28;;;;;;;15.86;59.58;100138.31;5049098;28;20202;-66
2023/06/02 08:34:13;;;;;;;7.70;3.17;;;;;;;15.79;59.98;100137.66;5048422;28;20264;-66
2023/06/02 08:36:42;;;;;;;9.02;3.58;;;;;;;15.79;60.08;100135.06;5045173;28;20206;-67
2023/06/02 08:39:11;;;;;;;6.70;3.33;;;;;;;15.81;59.60;100135.88;5047697;28;20216;-65
2023/06/02 08:41:39;;;;;;;6.22;3.45;;;;;;;15.83;59.59;100138.41;5035677;28;20206;-67
2023/06/02 08:44:07;;;;;;;5.75;3.05;;;;;;;15.83;59.40;100134.09;5046556;28;20228;-65
2023/06/02 08:46:36;;;;;;;7.65;3.45;;;;;;;15.88;59.66;100132.19;5046197;28;20679;-65
2023/06/02 08:49:04;;;;;;;6.03;2.88;;;;;;;15.96;59.39;100141.50;5050103;28;20221;-64
2023/06/02 08:51:36;;;;;;;6.68;2.95;;;;;;;16.08;59.21;100138.47;5045898;28;20668;-65
2023/06/02 08:54:11;;;;;;;6.53;2.95;;;;;;;16.29;59.30;100132.59;5046612;28;20658;-68
2023/06/02 08:56:41;;;;;;;5.85;3.05;;;;;;;16.52;57.87;100136.16;5046002;28;20194;-67
2023/06/02 08:59:09;;;;;;;4.60;2.92;;;;;;;16.59;57.49;100130.69;5050946;28;20197;-66
2023/06/02 09:01:37;;;;;;;5.47;3.08;;;;;;;16.60;57.49;100134.13;5049104;28;20225;-68
2023/06/02 09:04:05;;;;;;;5.25;3.08;;;;;;;16.60;57.08;100128.91;5048616;28;20202;-67
2023/06/02 09:06:36;;;;;;;6.47;2.63;;;;;;;16.63;57.57;100141.81;5047769;28;20202;-64
2023/06/02 09:09:05;;;;;;;4.85;2.90;;;;;;;16.61;57.21;100139.28;5050527;28;20226;-67
2023/06/02 09:11:35;;;;;;;6.97;2.78;;;;;;;16.54;57.06;100131.75;5048803;28;20213;-67
2023/06/02 09:14:19;;;;;;;8.00;3.55;;;;;;;16.54;57.06;100143.00;5055971;28;20209;-67
2023/06/02 09:16:47;;;;;;;5.90;3.10;;;;;;;16.47;57.25;100145.88;5045545;28;20279;-67
2023/06/02 09:19:15;;;;;;;9.07;2.92;;;;;;;16.39;57.36;100144.38;5050658;28;20193;-67
2023/06/02 09:21:43;;;;;;;6.53;3.35;;;;;;;16.31;57.73;100149.00;5045411;28;20238;-67
2023/06/02 09:24:13;;;;;;;4.88;3.00;;;;;;;16.24;58.24;100152.69;5049775;28;20198;-67
2023/06/02 09:26:49;;;;;;;8.27;3.17;;;;;;;16.17;58.24;100166.78;5049270;28;20210;-67
2023/06/02 09:29:18;;;;;;;11.65;3.13;;;;;;;16.06;58.61;100172.34;5052390;28;20233;-66
2023/06/02 09:31:49;;;;;;;6.47;3.70;;;;;;;15.90;58.94;100184.94;5047282;28;20259;-65
2023/06/02 09:34:18;;;;;;;6.25;3.25;;;;;;;15.76;59.70;100181.06;5048244;28;20237;-65
2023/06/02 09:36:48;;;;;;;4.95;3.20;;;;;;;15.65;59.79;100190.06;5048435;28;20213;-66
2023/06/02 09:39:33;;;;;;;8.23;3.83;;;;;;;15.57;60.32;100197.19;5047485;28;20609;-66
2023/06/02 09:42:03;;;;;;;7.47;3.38;;;;;;;15.48;60.75;100207.84;5051807;28;20284;-67
2023/06/02 09:44:31;;;;;;;6.53;3.05;;;;;;;15.41;61.25;100209.78;5048328;28;20218;-68
2023/06/02 09:47:01;;;;;;;6.28;3.22;;;;;;;15.38;61.97;100214.19;5047432;28;20216;-66
2023/06/02 09:49:40;;;;;;;6.57;2.88;;;;;;;15.30;61.57;100213.56;5047131;28;20224;-67
2023/06/02 09:52:15;;;;;;;5.93;3.10;;;;;;;15.19;61.57;100219.06;5051412;28;20639;-67
2023/06/02 09:54:44;;;;;;;5.82;3.20;;;;;;;15.09;61.89;100228.00;5049452;28;20220;-67
2023/06/02 09:57:14;;;;;;;8.73;3.58;;;;;;;15.02;62.45;100221.25;5054396;28;20205;-64
2023/06/02 09:59:43;;;;;;;6.63;2.95;;;;;;;15.00;63.01;100223.06;5054003;28;20684;-66
2023/06/02 10:02:12;;;;;;;7.18;2.80;;;;;;;15.03;62.64;100228.19;5057355;28;20209;-66
2023/06/02 10:04:40;;;;;;;5.28;3.05;;;;;;;15.03;61.96;100229.03;5052626;28;20201;-68
2023/06/02 10:07:27;;;;;;;9.23;3.17;;;;;;;15.05;62.04;100226.38;5053303;28;20300;-60
2023/06/02 10:10:10;;;;;;;10.70;3.33;;;;;;;15.04;61.29;100224.69;5048144;28;20578;-62
2023/06/02 10:12:50;;;;;;;4.28;2.85;;;;;;;15.08;61.32;100226.28;5052498;28;20262;-60
2023/06/02 10:15:59;;;;;;;9.27;2.67;;;;;;;15.15;61.20;100217.44;5052734;28;20723;-60
2023/06/02 10:18:52;;;;;;;6.72;3.03;;;;;;;15.20;61.29;100224.19;5035953;28;20563;-61
2023/06/02 10:21:30;;;;;;;4.38;2.83;;;;;;;15.27;60.44;100218.84;5045694;28;20230;-60
2023/06/02 10:24:06;;;;;;;4.53;2.85;;;;;;;15.27;59.98;100227.47;5051966;28;20244;-60
2023/06/02 10:26:56;;;;;;;6.93;2.88;;;;;;;15.22;60.28;100231.97;5045051;28;20255;-59
2023/06/02 10:29:28;;;;;;;5.43;3.00;;;;;;;15.22;59.82;100229.38;5043800;28;20244;-66
2023/06/02 10:31:56;;;;;;;8.35;3.22;;;;;;;15.21;59.86;100238.91;5048860;28;20630;-65
2023/06/02 10:34:37;;;;;;;9.43;3.00;;;;;;;15.22;59.29;100234.56;5044956;28;20608;-67
2023/06/02 10:37:15;;;;;;;3.97;2.92;;;;;;;15.24;59.17;100240.53;5044176;28;20610;-66
2023/06/02 10:39:52;;;;;;;4.40;1.90;;;;;;;15.23;58.19;100244.03;5053072;28;20218;-68
2023/06/02 10:42:22;;;;;;;3.28;2.40;;;;;;;15.20;57.83;100251.91;5046693;28;20208;-66
2023/06/02 10:44:53;;;;;;;6.10;2.15;;;;;;;15.20;57.74;100257.09;5045282;28;20251;-67
2023/06/02 10:47:41;;;;;;;8.77;2.15;;;;;;;15.22;57.18;100258.78;5048797;28;20209;-68
2023/06/02 10:50:11;;;;;;;4.35;2.00;;;;;;;15.21;56.78;100258.81;5043884;28;20685;-66
2023/06/02 10:53:09;;;;;;;3.95;1.77;;;;;;;15.24;56.67;100258.72;5051028;28;20201;-68
2023/06/02 10:55:40;;;;;;;3.25;1.90;;;;;;;15.22;56.56;100263.13;5049714;28;20198;-69
2023/06/02 10:58:11;;;;;;;3.63;1.98;;;;;;;15.22;56.18;100261.38;5051547;28;20205;-68
2023/06/02 11:00:49;;;;;;;2.95;2.00;;;;;;;15.22;56.51;100263.97;5051625;28;20609;-68
2023/06/02 11:03:34;;;;;;;2.97;1.40;;;;;;;15.31;56.15;100265.44;5050349;28;20248;-68
2023/06/02 11:06:22;;;;;;;3.20;1.77;;;;;;;15.41;55.72;100264.31;5046673;28;20203;-66
2023/06/02 11:08:51;;;;;;;8.43;1.75;;;;;;;15.44;54.93;100265.97;5047517;28;20799;-67
2023/06/02 11:11:53;;;;;;;3.67;1.98;;;;;;;15.43;54.86;100274.66;5050053;28;20197;-67
2023/06/02 11:14:22;;;;;;;3.08;1.90;;;;;;;15.42;54.78;100281.56;5046306;28;20323;-67
2023/06/02 11:17:26;;;;;;;4.65;1.63;;;;;;;15.37;55.03;100291.25;5046471;28;20289;-67
2023/06/02 11:19:57;;;;;;;2.92;1.50;;;;;;;15.40;54.28;100288.56;5044677;28;20582;-67
2023/06/02 11:22:26;;;;;;;2.05;1.50;;;;;;;15.34;53.71;100296.53;5055496;28;20656;-67
2023/06/02 11:24:56;;;;;;;2.92;2.03;;;;;;;15.28;53.72;100299.31;5052801;28;20210;-66
2023/06/02 11:27:36;;;;;;;6.43;1.70;;;;;;;15.27;54.30;100292.38;5049877;28;20721;-67
2023/06/02 11:30:10;;;;;;;3.75;1.65;;;;;;;15.25;54.08;100301.97;5048058;28;20307;-67
2023/06/02 11:32:38;;;;;;;4.05;1.90;;;;;;;15.30;54.33;100307.03;5054940;28;20711;-67
2023/06/02 11:35:09;;;;;;;1.77;1.50;;;;;;;15.32;53.60;100313.91;5049913;28;20212;-67
2023/06/02 11:37:40;;;;;;;5.32;1.80;;;;;;;15.33;53.89;100307.81;5043729;28;20219;-66
2023/06/02 11:40:11;;;;;;;2.92;1.40;;;;;;;15.35;53.75;100318.13;5050583;28;20204;-67
2023/06/02 11:42:41;;;;;;;6.30;1.90;;;;;;;15.36;53.23;100319.88;5051435;28;20212;-65